Time;durP1;ratioP1;P1;durP2;ratioP2;P2;SDS_P1;SDS_P2;PMS_P1;PMS_P2;Temp;Humidity;BMP_temperature;BMP_pressure;BME280_temperature;BME280_humidity;BME280_pressure;Samples;Min_cycle;Max_cycle;Signal;HPM_P1;HPM_P2
2022/07/19 00:00:53;;;;;;;10.13;6.13;;;;;;;20.14;49.45;101288.88;5029151;28;20061;-57
2022/07/19 00:03:21;;;;;;;14.70;6.53;;;;;;;20.08;49.61;101298.25;5049638;28;20056;-58
2022/07/19 00:05:49;;;;;;;11.60;6.75;;;;;;;20.05;49.99;101287.88;5031110;28;20049;-53
2022/07/19 00:08:16;;;;;;;10.88;6.80;;;;;;;20.01;49.73;101289.13;5030875;28;20058;-58
2022/07/19 00:10:43;;;;;;;11.35;7.20;;;;;;;19.98;49.69;101281.38;5028354;28;20072;-54
2022/07/19 00:13:11;;;;;;;9.60;6.32;;;;;;;19.96;49.62;101281.50;5030381;28;20053;-56
2022/07/19 00:15:39;;;;;;;10.35;6.28;;;;;;;19.95;49.89;101290.50;5041442;28;20543;-59
2022/07/19 00:18:06;;;;;;;10.07;6.18;;;;;;;19.92;49.79;101289.94;5049767;28;20509;-55
2022/07/19 00:20:33;;;;;;;14.00;6.53;;;;;;;19.87;50.18;101289.50;5034433;28;20076;-58
2022/07/19 00:23:00;;;;;;;14.65;7.30;;;;;;;19.83;50.84;101288.06;5030090;28;20045;-55
2022/07/19 00:25:28;;;;;;;10.80;5.97;;;;;;;19.79;50.16;101286.63;5033923;28;20067;-59
2022/07/19 00:27:55;;;;;;;10.13;6.43;;;;;;;19.75;51.00;101288.72;5068739;28;20060;-58
2022/07/19 00:30:22;;;;;;;8.98;6.13;;;;;;;19.73;50.64;101291.53;5045298;28;20057;-53
2022/07/19 00:32:49;;;;;;;11.20;6.80;;;;;;;19.71;50.82;101295.31;5055006;28;20049;-58
2022/07/19 00:35:17;;;;;;;10.20;6.60;;;;;;;19.69;51.10;101291.94;5048640;28;20398;-57
2022/07/19 00:37:45;;;;;;;10.02;5.95;;;;;;;19.66;50.85;101290.38;5061680;28;20057;-54
2022/07/19 00:40:22;;;;;;;8.38;5.88;;;;;;;19.64;51.20;101292.34;5050765;28;20063;-58
2022/07/19 00:42:52;;;;;;;8.82;5.57;;;;;;;19.61;51.11;101287.25;5048775;28;20053;-54
2022/07/19 00:45:19;;;;;;;10.93;6.22;;;;;;;19.59;51.45;101299.03;5055060;28;20052;-56
2022/07/19 00:47:46;;;;;;;9.50;5.45;;;;;;;19.57;51.43;101299.16;5045364;28;20064;-56
2022/07/19 00:50:14;;;;;;;9.38;5.80;;;;;;;19.54;51.77;101294.06;5053302;28;20071;-54
2022/07/19 00:52:43;;;;;;;13.35;5.75;;;;;;;19.52;51.42;101301.38;5059482;28;20192;-52
2022/07/19 00:55:10;;;;;;;10.45;6.78;;;;;;;19.49;51.47;101299.78;5053943;28;20645;-55
2022/07/19 00:57:41;;;;;;;10.27;6.00;;;;;;;19.47;51.24;101296.41;5046380;28;20056;-57
2022/07/19 01:00:09;;;;;;;12.68;5.97;;;;;;;19.47;51.62;101303.59;5055129;28;20044;-55
2022/07/19 01:02:37;;;;;;;10.70;5.82;;;;;;;19.44;51.50;101307.34;5045008;28;20069;-54
2022/07/19 01:05:06;;;;;;;14.60;6.68;;;;;;;19.42;52.75;101306.66;5047426;28;20079;-58
2022/07/19 01:07:34;;;;;;;8.48;5.63;;;;;;;19.37;52.64;101306.22;5053734;28;20123;-58
2022/07/19 01:10:05;;;;;;;9.70;5.97;;;;;;;19.34;52.08;101298.44;5057119;28;20067;-58
2022/07/19 01:12:33;;;;;;;9.00;5.68;;;;;;;19.32;52.77;101303.09;5045988;28;20048;-53
2022/07/19 01:15:00;;;;;;;7.75;5.57;;;;;;;19.27;52.18;101304.44;5055316;28;20064;-59
2022/07/19 01:17:29;;;;;;;9.38;6.00;;;;;;;19.26;52.49;101308.09;5054850;28;20049;-54
2022/07/19 01:19:56;;;;;;;7.70;5.60;;;;;;;19.21;52.70;101305.81;5049286;28;20420;-56
2022/07/19 01:22:23;;;;;;;11.10;6.05;;;;;;;19.20;52.98;101298.78;5056492;28;20056;-58
2022/07/19 01:24:50;;;;;;;7.40;4.90;;;;;;;19.17;52.65;101299.88;5051403;28;20041;-57
2022/07/19 01:27:17;;;;;;;9.20;5.75;;;;;;;19.14;52.82;101304.66;5054793;28;20049;-58
2022/07/19 01:29:44;;;;;;;11.50;5.80;;;;;;;19.10;52.60;101306.72;5050491;28;20059;-56
2022/07/19 01:32:12;;;;;;;6.95;5.25;;;;;;;19.08;52.80;101303.31;5059483;28;20072;-55
2022/07/19 01:34:39;;;;;;;12.40;6.07;;;;;;;19.06;53.11;101301.78;5053449;28;20053;-56
2022/07/19 01:37:06;;;;;;;13.52;6.20;;;;;;;19.01;53.41;101299.50;5048495;28;20394;-56
2022/07/19 01:39:33;;;;;;;10.40;5.25;;;;;;;19.00;53.01;101291.59;5054480;28;20060;-57
2022/07/19 01:42:00;;;;;;;11.80;6.38;;;;;;;18.98;53.32;101297.06;5054487;28;20048;-57
2022/07/19 01:44:27;;;;;;;9.98;5.22;;;;;;;18.95;54.08;101300.81;5049324;28;20358;-54
2022/07/19 01:46:54;;;;;;;13.20;5.78;;;;;;;18.92;53.85;101289.59;5050996;28;20048;-54
2022/07/19 01:49:21;;;;;;;7.95;5.53;;;;;;;18.90;53.33;101289.69;5050491;28;20049;-55
2022/07/19 01:51:49;;;;;;;7.95;5.18;;;;;;;18.89;53.88;101298.69;5051708;28;20057;-55
2022/07/19 01:54:16;;;;;;;10.13;5.93;;;;;;;18.86;53.52;101298.91;5047257;28;20052;-53
2022/07/19 01:56:43;;;;;;;10.35;5.97;;;;;;;18.85;53.68;101299.06;5060289;28;20072;-54
2022/07/19 01:59:10;;;;;;;12.57;5.43;;;;;;;18.82;54.58;101296.63;5057935;28;20857;-55
2022/07/19 02:01:37;;;;;;;10.55;5.85;;;;;;;18.78;54.40;101288.06;5045285;28;20061;-55
2022/07/19 02:04:06;;;;;;;7.72;5.68;;;;;;;18.76;54.40;101297.16;5055566;28;20501;-53
2022/07/19 02:06:33;;;;;;;11.77;5.93;;;;;;;18.72;54.21;101286.72;5058135;28;20060;-57
2022/07/19 02:09:00;;;;;;;10.75;6.10;;;;;;;18.71;54.21;101294.88;5054439;28;20454;-52
2022/07/19 02:11:34;;;;;;;9.60;5.32;;;;;;;18.70;53.98;101288.69;5054405;28;20544;-55
2022/07/19 02:14:08;;;;;;;8.00;5.37;;;;;;;18.68;54.10;101279.91;5057717;28;20044;-54
2022/07/19 02:16:37;;;;;;;8.00;5.60;;;;;;;18.66;54.46;101284.56;5060972;28;20400;-59
2022/07/19 02:19:04;;;;;;;8.80;5.20;;;;;;;18.63;54.87;101283.94;5060437;28;20053;-58
2022/07/19 02:21:33;;;;;;;10.75;6.18;;;;;;;18.60;56.09;101279.72;5047386;28;20053;-59
2022/07/19 02:24:00;;;;;;;11.93;4.90;;;;;;;18.56;55.55;101286.28;5059227;28;20386;-58
2022/07/19 02:26:27;;;;;;;11.25;4.78;;;;;;;18.54;55.15;101282.88;5064404;28;20053;-53
2022/07/19 02:28:58;;;;;;;8.57;5.53;;;;;;;18.51;55.40;101293.81;5046324;28;20072;-56
2022/07/19 02:31:25;;;;;;;7.40;5.47;;;;;;;18.46;56.26;101298.66;5054124;28;20055;-58
2022/07/19 02:33:52;;;;;;;8.57;5.93;;;;;;;18.41;55.89;101287.53;5058111;28;20063;-54
2022/07/19 02:36:20;;;;;;;11.05;6.43;;;;;;;18.40;55.82;101292.00;5056026;28;20053;-57
2022/07/19 02:38:47;;;;;;;11.98;5.75;;;;;;;18.36;56.40;101289.72;5062149;28;20064;-57
2022/07/19 02:41:14;;;;;;;9.40;5.72;;;;;;;18.33;55.88;101297.97;5054151;28;20452;-56
2022/07/19 02:43:41;;;;;;;10.32;5.78;;;;;;;18.30;56.13;101292.88;5063813;28;20068;-57
2022/07/19 02:46:08;;;;;;;8.27;5.35;;;;;;;18.28;56.45;101286.81;5056818;28;20409;-57
2022/07/19 02:48:35;;;;;;;11.80;5.50;;;;;;;18.27;56.67;101285.13;5053183;28;20053;-57
2022/07/19 02:51:03;;;;;;;10.70;5.43;;;;;;;18.25;56.26;101282.59;5059815;28;20060;-57
2022/07/19 02:53:31;;;;;;;7.30;5.30;;;;;;;18.25;55.89;101281.75;5057346;28;20492;-55
2022/07/19 02:55:58;;;;;;;9.25;5.97;;;;;;;18.25;56.40;101284.44;5059103;28;20067;-51
2022/07/19 02:58:25;;;;;;;12.57;5.57;;;;;;;18.22;56.31;101281.03;5055728;28;20487;-55
2022/07/19 03:00:52;;;;;;;16.17;5.15;;;;;;;18.21;56.05;101284.66;5051786;28;20053;-58
2022/07/19 03:06:05;;;;;;;;;;;;;;;18.16;56.15;101280.69;5047954;28;20167;-58
2022/07/19 03:08:32;;;;;;;9.40;5.35;;;;;;;18.15;56.29;101279.00;5058628;28;19943;-56
2022/07/19 03:10:59;;;;;;;12.38;5.45;;;;;;;18.13;56.71;101276.44;5047201;28;20053;-57
2022/07/19 03:13:26;;;;;;;9.02;6.10;;;;;;;18.12;56.43;101282.75;5051070;28;20069;-55
2022/07/19 03:15:54;;;;;;;8.02;5.07;;;;;;;18.11;56.65;101281.06;5058769;28;20053;-55
2022/07/19 03:18:22;;;;;;;9.55;5.35;;;;;;;18.10;56.56;101283.81;5053689;28;20472;-57
2022/07/19 03:20:49;;;;;;;7.93;5.15;;;;;;;18.07;56.83;101284.94;5054041;28;20068;-52
2022/07/19 03:23:16;;;;;;;8.07;5.65;;;;;;;18.07;57.90;101287.59;5050977;28;20057;-54
2022/07/19 03:25:43;;;;;;;9.60;5.30;;;;;;;18.08;56.84;101280.44;5061229;28;20044;-58
2022/07/19 03:28:10;;;;;;;10.57;5.25;;;;;;;18.08;57.01;101278.63;5056420;28;20071;-57
2022/07/19 03:30:37;;;;;;;15.10;5.38;;;;;;;18.08;57.33;101272.44;5056847;28;20064;-56
2022/07/19 03:33:04;;;;;;;9.32;5.50;;;;;;;18.06;57.23;101279.72;5056599;28;20048;-54
2022/07/19 03:35:31;;;;;;;8.93;5.20;;;;;;;18.05;57.19;101278.84;5060207;28;20152;-57
2022/07/19 03:37:58;;;;;;;8.73;5.78;;;;;;;18.04;57.06;101279.84;5054846;28;20453;-55
2022/07/19 03:40:26;;;;;;;11.43;6.00;;;;;;;18.03;57.38;101274.63;5054066;28;20052;-53
2022/07/19 03:42:53;;;;;;;18.05;5.95;;;;;;;18.04;57.50;101276.31;5058062;28;20053;-58
2022/07/19 03:45:20;;;;;;;9.38;5.03;;;;;;;18.05;57.44;101280.69;5056059;28;20373;-55
2022/07/19 03:47:47;;;;;;;9.07;5.18;;;;;;;18.06;57.78;101280.56;5046321;28;20053;-57
2022/07/19 03:50:14;;;;;;;8.75;5.57;;;;;;;18.07;57.37;101276.94;5057295;28;20053;-54
2022/07/19 03:52:41;;;;;;;8.65;6.10;;;;;;;18.10;57.05;101276.69;5051017;28;20053;-56
2022/07/19 03:55:08;;;;;;;9.60;5.30;;;;;;;18.12;56.98;101280.06;5058957;28;20060;-52
2022/07/19 03:57:35;;;;;;;8.88;5.60;;;;;;;18.16;56.90;101276.19;5047897;28;20390;-58
2022/07/19 04:00:04;;;;;;;8.90;5.78;;;;;;;18.20;56.93;101274.13;5044418;28;20639;-55
2022/07/19 04:02:31;;;;;;;9.40;5.53;;;;;;;18.23;56.64;101280.03;5043435;28;20041;-55
2022/07/19 04:04:59;;;;;;;9.38;5.90;;;;;;;18.26;56.90;101278.13;5042342;28;20553;-53
2022/07/19 04:07:26;;;;;;;11.57;6.07;;;;;;;18.28;58.59;101278.81;5030141;28;20069;-55
2022/07/19 04:09:53;;;;;;;17.60;5.38;;;;;;;18.28;57.63;101279.69;5028904;28;20053;-56
2022/07/19 04:12:21;;;;;;;9.18;5.38;;;;;;;18.31;57.35;101278.59;5030563;28;20053;-57
2022/07/19 04:14:48;;;;;;;9.40;5.10;;;;;;;18.31;57.65;101278.59;5029225;28;20100;-53
2022/07/19 04:17:15;;;;;;;12.80;5.93;;;;;;;18.37;57.22;101278.94;5030319;28;20683;-53
2022/07/19 04:19:43;;;;;;;11.15;5.75;;;;;;;18.41;56.75;101279.53;5042113;28;20060;-58
2022/07/19 04:22:10;;;;;;;7.07;4.93;;;;;;;18.46;56.65;101282.66;5065563;28;20076;-55
2022/07/19 04:24:37;;;;;;;8.68;5.45;;;;;;;18.52;56.28;101287.50;5065789;28;20359;-55
2022/07/19 04:27:04;;;;;;;10.70;5.68;;;;;;;18.56;56.54;101283.63;5073845;28;20063;-56
2022/07/19 04:29:31;;;;;;;9.20;5.55;;;;;;;18.61;56.24;101292.09;5049442;28;20046;-54
2022/07/19 04:31:58;;;;;;;10.43;5.63;;;;;;;18.66;56.44;101287.22;5046725;28;20063;-54
2022/07/19 04:34:25;;;;;;;7.93;5.60;;;;;;;18.71;56.17;101284.19;5050086;28;20065;-54
2022/07/19 04:36:52;;;;;;;8.35;5.20;;;;;;;18.76;56.18;101286.47;5040926;28;20054;-57
2022/07/19 04:39:20;;;;;;;7.60;5.07;;;;;;;18.80;55.63;101291.44;5028873;28;20071;-56
2022/07/19 04:41:47;;;;;;;9.20;5.40;;;;;;;18.86;55.45;101288.25;5040069;28;20055;-55
2022/07/19 04:44:14;;;;;;;9.48;5.13;;;;;;;18.92;55.34;101297.59;5044735;28;20049;-54
2022/07/19 04:46:41;;;;;;;9.27;5.03;;;;;;;18.98;55.05;101289.91;5028277;28;20069;-55
2022/07/19 04:49:14;;;;;;;10.20;4.93;;;;;;;19.05;54.76;101298.25;5029853;28;20053;-56
2022/07/19 04:51:41;;;;;;;9.30;5.50;;;;;;;19.10;54.64;101293.38;5033741;28;20413;-54
2022/07/19 04:54:08;;;;;;;9.30;5.55;;;;;;;19.16;54.47;101292.00;5049731;28;20075;-57
2022/07/19 04:56:35;;;;;;;10.07;5.60;;;;;;;19.22;54.46;101292.31;5048305;28;20045;-55
2022/07/19 04:59:02;;;;;;;9.27;5.25;;;;;;;19.28;54.75;101290.97;5049144;28;20396;-55
2022/07/19 05:01:30;;;;;;;12.07;5.85;;;;;;;19.35;55.11;101299.28;5044809;28;20089;-57
2022/07/19 05:03:58;;;;;;;8.05;4.82;;;;;;;19.41;54.51;101293.44;5049271;28;20045;-55
2022/07/19 05:06:25;;;;;;;10.15;5.57;;;;;;;19.49;54.58;101285.59;5047764;28;20057;-56
2022/07/19 05:08:52;;;;;;;11.00;5.55;;;;;;;19.56;54.67;101297.47;5048444;28;20242;-58
2022/07/19 05:11:20;;;;;;;11.32;5.30;;;;;;;19.60;54.07;101290.91;5033860;28;20046;-59
2022/07/19 05:13:47;;;;;;;12.82;5.57;;;;;;;19.68;54.37;101293.78;5049100;28;20425;-57
2022/07/19 05:16:14;;;;;;;12.88;6.35;;;;;;;19.75;54.25;101293.22;5048016;28;20080;-60
2022/07/19 05:18:41;;;;;;;7.80;5.45;;;;;;;19.83;53.84;101296.09;5049646;28;20162;-57
2022/07/19 05:21:08;;;;;;;12.95;5.07;;;;;;;19.91;53.92;101288.25;5038300;28;20615;-60
2022/07/19 05:23:35;;;;;;;12.68;5.45;;;;;;;19.99;53.64;101288.38;5028481;28;20053;-57
2022/07/19 05:26:02;;;;;;;10.88;5.57;;;;;;;20.05;53.31;101295.88;5042585;28;20052;-58
2022/07/19 05:28:30;;;;;;;10.85;5.38;;;;;;;20.10;53.46;101295.47;5069354;28;20060;-59
2022/07/19 05:31:03;;;;;;;10.90;5.25;;;;;;;20.21;53.15;101303.38;5034471;28;20069;-60
2022/07/19 05:33:30;;;;;;;8.52;4.40;;;;;;;20.31;52.79;101311.41;5049195;28;20060;-60
2022/07/19 05:35:57;;;;;;;10.15;5.03;;;;;;;20.36;51.58;101302.03;5046518;28;20079;-59
2022/07/19 05:38:25;;;;;;;7.97;4.95;;;;;;;20.44;51.70;101304.88;5049471;28;20049;-59
2022/07/19 05:40:52;;;;;;;8.52;4.85;;;;;;;20.55;51.00;101306.59;5035241;28;20064;-58
2022/07/19 05:43:19;;;;;;;10.55;4.68;;;;;;;20.61;51.27;101303.34;5049458;28;20053;-57
2022/07/19 05:45:46;;;;;;;9.60;5.03;;;;;;;20.71;50.68;101306.91;5046089;28;20045;-59
2022/07/19 05:48:13;;;;;;;12.63;4.70;;;;;;;20.81;50.40;101309.59;5045945;28;20072;-58
2022/07/19 05:50:40;;;;;;;19.50;5.43;;;;;;;20.86;50.35;101306.50;5027865;28;20065;-58
2022/07/19 05:53:07;;;;;;;9.85;4.63;;;;;;;20.97;50.25;101311.69;5049254;28;20053;-57
2022/07/19 05:55:34;;;;;;;12.57;5.13;;;;;;;21.08;49.67;101310.72;5047388;28;20053;-57
2022/07/19 05:58:01;;;;;;;15.38;4.43;;;;;;;21.15;49.97;101312.66;5038313;28;20061;-56
2022/07/19 06:00:29;;;;;;;10.30;4.88;;;;;;;21.25;49.75;101304.63;5028125;28;20072;-58
2022/07/19 06:02:56;;;;;;;10.98;4.82;;;;;;;21.33;48.86;101306.63;5045010;28;20061;-58
2022/07/19 06:05:23;;;;;;;11.40;3.85;;;;;;;21.44;48.63;101306.47;5047663;28;20052;-58
2022/07/19 06:07:50;;;;;;;8.60;3.92;;;;;;;21.55;47.83;101302.78;5029144;28;20057;-57
2022/07/19 06:10:17;;;;;;;7.72;3.83;;;;;;;21.67;47.41;101306.97;5027836;28;20136;-57
2022/07/19 06:12:44;;;;;;;12.05;4.70;;;;;;;21.74;46.02;101308.91;5041801;28;20413;-58
2022/07/19 06:15:12;;;;;;;10.45;4.40;;;;;;;21.76;45.77;101305.25;5027869;28;20057;-57
2022/07/19 06:17:39;;;;;;;8.48;3.67;;;;;;;21.88;46.26;101312.09;5028517;28;20076;-58
2022/07/19 06:20:07;;;;;;;9.38;3.80;;;;;;;22.03;45.89;101309.81;5027326;28;20552;-58
2022/07/19 06:22:34;;;;;;;10.30;4.45;;;;;;;22.13;45.29;101308.78;5028918;28;20422;-56
2022/07/19 06:25:01;;;;;;;23.27;4.72;;;;;;;22.21;45.38;101308.03;5027236;28;20065;-54
2022/07/19 06:27:28;;;;;;;14.10;4.25;;;;;;;22.30;45.06;101311.66;5055440;28;20057;-58
2022/07/19 06:29:55;;;;;;;8.82;4.05;;;;;;;22.43;43.80;101314.84;5026946;28;20057;-57
2022/07/19 06:32:22;;;;;;;16.55;4.35;;;;;;;22.34;44.03;101311.22;5039688;28;20064;-57
2022/07/19 06:34:50;;;;;;;9.70;4.07;;;;;;;22.54;44.19;101311.09;5045537;28;20056;-59
2022/07/19 06:37:17;;;;;;;8.85;4.00;;;;;;;22.64;43.13;101312.69;5049243;28;20485;-59
2022/07/19 06:39:44;;;;;;;6.90;3.45;;;;;;;22.76;43.26;101316.00;5040783;28;20060;-57
2022/07/19 06:42:11;;;;;;;9.98;3.83;;;;;;;22.81;42.46;101310.19;5041105;28;20076;-60
2022/07/19 06:44:38;;;;;;;12.43;3.92;;;;;;;22.99;42.66;101308.38;5051995;28;20048;-58
2022/07/19 06:47:05;;;;;;;11.95;4.55;;;;;;;23.14;41.97;101317.53;5051461;28;20052;-58
2022/07/19 06:49:32;;;;;;;12.00;4.50;;;;;;;23.24;41.26;101312.13;5039994;28;20528;-58
2022/07/19 06:52:01;;;;;;;10.30;3.80;;;;;;;23.33;41.21;101307.66;5046002;28;20057;-58
2022/07/19 06:54:28;;;;;;;10.95;3.65;;;;;;;23.50;40.91;101310.28;5055860;28;20453;-58
2022/07/19 06:56:56;;;;;;;10.18;3.88;;;;;;;23.62;40.18;101313.53;5056534;28;20049;-58
2022/07/19 06:59:23;;;;;;;15.30;4.20;;;;;;;23.77;40.20;101304.91;5059051;28;20467;-58
2022/07/19 07:01:50;;;;;;;14.15;4.72;;;;;;;23.83;39.33;101302.44;5046188;28;20053;-59
2022/07/19 07:04:17;;;;;;;10.98;3.67;;;;;;;24.00;39.31;101303.34;5059513;28;20059;-59
2022/07/19 07:06:55;;;;;;;14.13;3.83;;;;;;;24.18;37.97;101304.13;5057880;28;20060;-59
2022/07/19 07:09:22;;;;;;;15.85;4.00;;;;;;;24.24;37.77;101298.06;5053553;28;20057;-59
2022/07/19 07:11:49;;;;;;;18.00;3.85;;;;;;;24.39;37.57;101309.06;5044335;28;20049;-58
2022/07/19 07:14:16;;;;;;;5.50;3.30;;;;;;;24.58;37.28;101299.03;5060862;28;20064;-59
2022/07/19 07:16:43;;;;;;;7.57;2.92;;;;;;;24.62;36.73;101301.22;5050278;28;20045;-58
2022/07/19 07:19:10;;;;;;;8.82;3.25;;;;;;;24.74;36.45;101297.19;5059975;28;20052;-59
2022/07/19 07:21:38;;;;;;;7.63;2.97;;;;;;;24.83;36.63;101302.59;5052043;28;20052;-60
2022/07/19 07:24:05;;;;;;;14.35;3.88;;;;;;;24.94;36.46;101304.94;5062371;28;20051;-58
2022/07/19 07:26:33;;;;;;;10.20;4.63;;;;;;;25.04;35.88;101304.78;5051321;28;20049;-60
2022/07/19 07:29:00;;;;;;;11.30;4.38;;;;;;;25.23;36.06;101304.50;5052428;28;20053;-59
2022/07/19 07:31:27;;;;;;;8.35;3.65;;;;;;;25.43;35.93;101304.97;5046479;28;20056;-58
2022/07/19 07:33:54;;;;;;;9.32;3.30;;;;;;;25.60;36.11;101311.19;5052237;28;20069;-59
2022/07/19 07:36:21;;;;;;;9.00;3.63;;;;;;;25.77;35.50;101314.72;5053295;28;20049;-59
2022/07/19 07:38:48;;;;;;;9.70;2.95;;;;;;;25.90;35.00;101315.84;5059376;28;20053;-60
2022/07/19 07:41:16;;;;;;;10.32;2.92;;;;;;;26.02;35.03;101313.59;5055772;28;20091;-58
2022/07/19 07:44:03;;;;;;;9.45;3.33;;;;;;;26.12;35.04;101319.66;5047024;28;20060;-60
2022/07/19 07:46:30;;;;;;;13.27;4.75;;;;;;;25.98;34.39;101312.25;5053114;28;20052;-59
2022/07/19 07:48:57;;;;;;;16.20;5.00;;;;;;;26.13;34.72;101312.38;5054628;28;20059;-58
2022/07/19 07:51:31;;;;;;;10.50;5.03;;;;;;;26.33;34.56;101310.91;5053612;28;20049;-59
2022/07/19 07:54:18;;;;;;;12.23;3.53;;;;;;;26.56;34.07;101302.03;5049635;28;20398;-59
2022/07/19 07:56:46;;;;;;;12.80;3.95;;;;;;;26.72;34.04;101310.88;5047131;28;20514;-57
2022/07/19 07:59:13;;;;;;;15.50;4.32;;;;;;;26.75;34.07;101312.41;5055244;28;20092;-59
2022/07/19 08:01:42;;;;;;;15.55;4.72;;;;;;;26.79;33.36;101310.16;5058669;28;20069;-59
2022/07/19 08:04:10;;;;;;;10.25;4.32;;;;;;;26.93;32.96;101312.94;5051164;28;20046;-57
2022/07/19 08:06:37;;;;;;;10.88;4.00;;;;;;;27.09;33.42;101309.28;5051876;28;20057;-59
2022/07/19 08:09:04;;;;;;;9.10;3.92;;;;;;;27.23;33.25;101313.03;5055670;28;20068;-55
2022/07/19 08:11:33;;;;;;;6.93;3.65;;;;;;;27.40;32.90;101302.94;5054177;28;20077;-56
2022/07/19 08:14:01;;;;;;;10.30;3.97;;;;;;;27.52;32.57;101301.47;5050603;28;20496;-56
2022/07/19 08:16:28;;;;;;;13.77;3.40;;;;;;;27.64;32.34;101308.06;5059334;28;20060;-59
2022/07/19 08:18:55;;;;;;;6.35;2.80;;;;;;;27.76;32.46;101312.03;5056050;28;20408;-57
2022/07/19 08:21:22;;;;;;;6.63;2.80;;;;;;;27.87;32.69;101310.72;5039775;28;20044;-59
2022/07/19 08:23:49;;;;;;;5.13;2.70;;;;;;;28.00;31.62;101313.59;5057374;28;20432;-59
2022/07/19 08:26:17;;;;;;;8.02;2.70;;;;;;;28.10;31.51;101315.19;5053601;28;20391;-59
2022/07/19 08:28:46;;;;;;;10.48;2.53;;;;;;;28.15;31.65;101312.75;5056523;28;20052;-59
2022/07/19 08:31:14;;;;;;;12.73;2.97;;;;;;;28.27;31.44;101309.34;5050830;28;20056;-58
2022/07/19 08:33:41;;;;;;;6.00;2.63;;;;;;;28.42;30.92;101309.38;5056904;28;20472;-59
2022/07/19 08:36:12;;;;;;;11.02;3.42;;;;;;;28.56;31.24;101309.53;5056284;28;20053;-58
2022/07/19 08:38:39;;;;;;;10.15;3.45;;;;;;;28.65;31.10;101316.50;5042142;28;20049;-60
2022/07/19 08:41:07;;;;;;;10.27;3.15;;;;;;;28.65;30.85;101320.03;5052286;28;20041;-59
2022/07/19 08:43:34;;;;;;;8.38;2.80;;;;;;;28.75;30.44;101317.84;5045900;28;20139;-57
2022/07/19 08:46:03;;;;;;;8.43;2.97;;;;;;;28.79;30.65;101318.31;5047849;28;20057;-57
2022/07/19 08:48:35;;;;;;;18.35;4.05;;;;;;;28.80;29.89;101308.31;5052206;28;20048;-59
2022/07/19 08:51:13;;;;;;;8.20;3.42;;;;;;;28.66;30.36;101310.88;5042852;28;20071;-59
2022/07/19 08:53:40;;;;;;;8.73;3.35;;;;;;;28.84;30.25;101312.31;5056119;28;20678;-60
2022/07/19 08:57:56;;;;;;;9.10;2.72;;;;;;;29.09;30.37;101305.50;5058033;28;20055;-59
2022/07/19 08:58:55;;;;;;;5.25;2.67;;;;;;;29.27;30.47;101302.31;5056479;28;20071;-60
2022/07/19 09:01:22;;;;;;;7.25;3.15;;;;;;;29.40;29.86;101305.09;5051932;28;20064;-60
2022/07/19 09:04:13;;;;;;;11.57;3.40;;;;;;;29.58;30.24;101299.19;5057770;28;20135;-61
2022/07/19 09:06:40;;;;;;;10.75;2.58;;;;;;;29.69;29.75;101304.06;5045364;28;20056;-59
2022/07/19 09:09:08;;;;;;;17.63;3.65;;;;;;;29.80;29.39;101299.94;5045896;28;20064;-59
2022/07/19 09:11:37;;;;;;;8.25;2.97;;;;;;;29.90;29.84;101305.88;5032853;28;20139;-56
2022/07/19 09:14:07;;;;;;;17.98;2.75;;;;;;;30.02;28.65;101301.53;5049182;28;20080;-56
2022/07/19 09:16:55;;;;;;;7.03;2.65;;;;;;;30.10;28.08;101305.94;5047104;28;20053;-58
2022/07/19 09:19:26;;;;;;;13.52;3.13;;;;;;;30.14;27.28;101301.00;5046619;28;20049;-59
2022/07/19 09:22:07;;;;;;;10.90;3.28;;;;;;;30.12;27.92;101293.00;5027484;28;20053;-59
2022/07/19 09:24:37;;;;;;;10.93;2.58;;;;;;;30.23;27.76;101292.44;5029056;28;20064;-59
2022/07/19 09:27:05;;;;;;;10.13;2.88;;;;;;;30.38;27.87;101291.44;5059742;28;20040;-58
2022/07/19 09:29:35;;;;;;;6.28;2.78;;;;;;;30.57;27.81;101287.09;5050655;28;20058;-59
2022/07/19 09:32:14;;;;;;;6.45;2.90;;;;;;;30.67;27.59;101299.25;5037156;28;20548;-60
2022/07/19 09:34:55;;;;;;;8.57;3.22;;;;;;;30.55;26.94;101292.75;5041579;28;20060;-59
2022/07/19 09:37:31;;;;;;;8.18;2.80;;;;;;;30.69;27.34;101293.59;5049181;28;20060;-59
2022/07/19 09:40:01;;;;;;;4.78;3.20;;;;;;;30.87;26.50;101296.59;5043762;28;20080;-55
2022/07/19 09:42:42;;;;;;;8.93;3.22;;;;;;;30.86;26.09;101294.09;5049005;28;20067;-59
2022/07/19 09:45:12;;;;;;;7.18;2.90;;;;;;;30.96;25.35;101292.63;5062757;28;20048;-57
2022/07/19 09:47:43;;;;;;;12.32;3.20;;;;;;;31.11;25.87;101297.84;5051741;28;20045;-59
2022/07/19 09:50:14;;;;;;;11.40;3.50;;;;;;;31.22;25.84;101293.69;5048469;28;20064;-58
2022/07/19 09:52:42;;;;;;;6.10;3.00;;;;;;;31.27;25.88;101286.56;5049149;28;20170;-59
2022/07/19 09:55:15;;;;;;;6.60;2.65;;;;;;;31.45;25.73;101290.53;5047995;28;20359;-59
2022/07/19 09:57:45;;;;;;;4.63;2.80;;;;;;;31.52;24.25;101286.75;5046558;28;20057;-59
2022/07/19 10:00:14;;;;;;;5.05;2.83;;;;;;;31.50;24.39;101282.56;5040709;28;20079;-58
2022/07/19 10:02:44;;;;;;;6.15;3.10;;;;;;;31.33;24.66;101279.44;5049923;28;20060;-58
2022/07/19 10:05:12;;;;;;;2.92;2.28;;;;;;;31.44;24.46;101280.72;5047610;28;20056;-59
2022/07/19 10:07:40;;;;;;;7.70;2.85;;;;;;;31.58;24.85;101276.91;5029788;28;20076;-60
2022/07/19 10:10:12;;;;;;;6.03;2.70;;;;;;;31.68;25.38;101269.13;5026234;28;20053;-59
2022/07/19 10:12:41;;;;;;;6.65;2.80;;;;;;;31.86;25.29;101271.19;5029540;28;20049;-59
2022/07/19 10:15:10;;;;;;;7.18;2.50;;;;;;;31.75;23.96;101264.50;5031852;28;20068;-60
2022/07/19 10:17:41;;;;;;;13.15;3.53;;;;;;;31.39;24.12;101267.75;5032514;28;20056;-60
2022/07/19 10:20:09;;;;;;;6.57;3.38;;;;;;;31.47;24.51;101264.78;5030185;28;20053;-59
2022/07/19 10:22:39;;;;;;;13.30;3.25;;;;;;;31.51;24.50;101259.75;5030292;28;20622;-57
2022/07/19 10:25:13;;;;;;;3.20;2.50;;;;;;;31.73;24.59;101258.41;5031772;28;20057;-59
2022/07/19 10:27:43;;;;;;;9.10;3.38;;;;;;;31.94;23.22;101251.06;5032557;28;20386;-58
2022/07/19 10:30:10;;;;;;;8.07;3.10;;;;;;;32.07;23.77;101253.72;5031047;28;20063;-60
2022/07/19 10:32:45;;;;;;;12.25;3.83;;;;;;;32.11;24.11;101251.38;5046965;28;20510;-58
2022/07/19 10:35:16;;;;;;;5.47;2.95;;;;;;;32.27;23.39;101246.25;5051288;28;20049;-59
2022/07/19 10:37:49;;;;;;;8.70;3.88;;;;;;;32.34;23.29;101239.94;5051609;28;20045;-61
2022/07/19 10:40:40;;;;;;;7.38;3.20;;;;;;;32.36;24.11;101246.00;5030955;28;20080;-60
2022/07/19 10:43:15;;;;;;;11.25;3.40;;;;;;;32.58;23.36;101247.34;5050125;28;20496;-59
2022/07/19 10:46:02;;;;;;;5.15;2.55;;;;;;;32.79;23.34;101243.44;5050933;28;20057;-58
2022/07/19 10:48:36;;;;;;;5.97;2.38;;;;;;;32.98;23.62;101242.44;5043967;28;20060;-59
2022/07/19 10:51:05;;;;;;;5.22;3.20;;;;;;;33.10;22.22;101242.56;5030299;28;20049;-58
2022/07/19 10:53:41;;;;;;;3.92;3.00;;;;;;;33.14;21.40;101237.47;5032419;28;20445;-57
2022/07/19 10:56:20;;;;;;;3.80;2.63;;;;;;;33.03;21.11;101243.69;5030181;28;20064;-59
2022/07/19 10:58:48;;;;;;;7.43;2.97;;;;;;;32.90;21.03;101236.41;5040767;28;20075;-59
2022/07/19 11:01:17;;;;;;;5.68;2.53;;;;;;;32.79;21.61;101228.97;5069676;28;20385;-57
2022/07/19 11:03:49;;;;;;;4.32;2.53;;;;;;;33.02;21.99;101229.19;5053348;28;20064;-60
2022/07/19 11:06:26;;;;;;;8.52;2.42;;;;;;;33.15;20.16;101225.50;5040036;28;20076;-58
2022/07/19 11:09:21;;;;;;;6.93;2.30;;;;;;;33.13;20.29;101219.44;5054467;22;20429;31
2022/07/19 11:12:08;;;;;;;10.82;3.13;;;;;;;33.12;20.00;101220.50;4965389;28;20042;-86
2022/07/19 11:14:45;;;;;;;9.90;2.80;;;;;;;33.26;20.55;101209.22;4960615;28;20046;-85
2022/07/19 11:17:38;;;;;;;4.85;2.63;;;;;;;33.56;20.56;101213.13;4966237;28;20384;-85
2022/07/19 11:20:09;;;;;;;5.80;2.50;;;;;;;33.51;19.30;101213.81;4961329;28;20051;-85
2022/07/19 11:22:48;;;;;;;8.88;2.35;;;;;;;33.51;19.75;101208.38;4960656;28;20396;-87
2022/07/19 11:25:39;;;;;;;;;;;;;;;33.68;19.90;101211.28;4942934;28;20106;-86
2022/07/19 11:28:25;;;;;;;11.57;4.30;;;;;;;34.07;20.44;101207.22;4976978;28;19930;-86
2022/07/19 11:30:52;;;;;;;;;;;;;;;34.43;20.03;101208.16;4960856;28;20141;-86
2022/07/19 11:33:26;;;;;;;9.00;2.78;;;;;;;34.50;18.78;101208.94;4967156;28;19922;-85